sensor_id;sensor_type;location;lat;lon;timestamp;P1;durP1;ratioP1;P2;durP2;ratioP2
21424;SDS011;10873;51.132;16.848;2024-03-07T00:00:03;12.43;;;8.73;;
21424;SDS011;10873;51.132;16.848;2024-03-07T00:03:00;11.80;;;8.85;;
21424;SDS011;10873;51.132;16.848;2024-03-07T00:05:26;12.57;;;8.82;;
21424;SDS011;10873;51.132;16.848;2024-03-07T00:07:53;13.98;;;8.85;;
21424;SDS011;10873;51.132;16.848;2024-03-07T00:10:20;15.45;;;9.50;;
21424;SDS011;10873;51.132;16.848;2024-03-07T00:12:48;13.90;;;9.82;;
21424;SDS011;10873;51.132;16.848;2024-03-07T00:15:15;15.30;;;9.40;;
21424;SDS011;10873;51.132;16.848;2024-03-07T00:17:41;13.93;;;9.32;;
21424;SDS011;10873;51.132;16.848;2024-03-07T00:20:08;11.20;;;8.57;;
21424;SDS011;10873;51.132;16.848;2024-03-07T00:22:40;12.50;;;9.15;;
21424;SDS011;10873;51.132;16.848;2024-03-07T00:25:06;13.30;;;9.10;;
21424;SDS011;10873;51.132;16.848;2024-03-07T00:27:35;13.90;;;9.45;;
21424;SDS011;10873;51.132;16.848;2024-03-07T00:30:03;15.50;;;10.23;;
21424;SDS011;10873;51.132;16.848;2024-03-07T00:32:31;13.57;;;9.73;;
21424;SDS011;10873;51.132;16.848;2024-03-07T00:35:00;14.60;;;9.73;;
21424;SDS011;10873;51.132;16.848;2024-03-07T00:37:28;13.98;;;9.52;;
21424;SDS011;10873;51.132;16.848;2024-03-07T00:39:56;14.95;;;9.88;;
21424;SDS011;10873;51.132;16.848;2024-03-07T00:42:22;13.15;;;9.45;;
21424;SDS011;10873;51.132;16.848;2024-03-07T00:44:48;13.15;;;9.73;;
21424;SDS011;10873;51.132;16.848;2024-03-07T00:47:18;14.25;;;9.77;;
21424;SDS011;10873;51.132;16.848;2024-03-07T00:49:44;14.77;;;9.55;;
21424;SDS011;10873;51.132;16.848;2024-03-07T00:52:13;14.43;;;10.00;;
21424;SDS011;10873;51.132;16.848;2024-03-07T00:54:39;13.93;;;9.27;;
21424;SDS011;10873;51.132;16.848;2024-03-07T00:57:07;13.18;;;9.27;;
21424;SDS011;10873;51.132;16.848;2024-03-07T00:59:34;13.73;;;9.73;;
21424;SDS011;10873;51.132;16.848;2024-03-07T01:02:00;14.48;;;9.00;;
21424;SDS011;10873;51.132;16.848;2024-03-07T01:04:27;13.82;;;9.95;;
21424;SDS011;10873;51.132;16.848;2024-03-07T01:06:57;13.77;;;9.57;;
21424;SDS011;10873;51.132;16.848;2024-03-07T01:09:23;13.77;;;9.70;;
21424;SDS011;10873;51.132;16.848;2024-03-07T01:11:50;15.13;;;9.93;;
21424;SDS011;10873;51.132;16.848;2024-03-07T01:14:16;15.63;;;10.20;;
21424;SDS011;10873;51.132;16.848;2024-03-07T01:16:42;13.27;;;9.77;;
21424;SDS011;10873;51.132;16.848;2024-03-07T01:19:08;13.00;;;9.32;;
21424;SDS011;10873;51.132;16.848;2024-03-07T01:21:36;13.45;;;9.32;;
21424;SDS011;10873;51.132;16.848;2024-03-07T01:24:02;13.00;;;9.45;;
21424;SDS011;10873;51.132;16.848;2024-03-07T01:26:29;13.77;;;8.75;;
21424;SDS011;10873;51.132;16.848;2024-03-07T01:28:58;15.73;;;9.80;;
21424;SDS011;10873;51.132;16.848;2024-03-07T01:31:26;11.82;;;8.95;;
21424;SDS011;10873;51.132;16.848;2024-03-07T01:33:53;14.00;;;9.23;;
21424;SDS011;10873;51.132;16.848;2024-03-07T01:36:20;14.60;;;9.70;;
21424;SDS011;10873;51.132;16.848;2024-03-07T01:38:47;16.65;;;9.45;;
21424;SDS011;10873;51.132;16.848;2024-03-07T01:41:14;15.13;;;10.02;;
21424;SDS011;10873;51.132;16.848;2024-03-07T01:43:40;13.18;;;9.20;;
21424;SDS011;10873;51.132;16.848;2024-03-07T01:46:07;12.75;;;9.65;;
21424;SDS011;10873;51.132;16.848;2024-03-07T01:48:33;12.23;;;9.23;;
21424;SDS011;10873;51.132;16.848;2024-03-07T01:51:00;12.90;;;9.20;;
21424;SDS011;10873;51.132;16.848;2024-03-07T01:53:29;12.25;;;9.07;;
21424;SDS011;10873;51.132;16.848;2024-03-07T01:55:57;12.73;;;9.32;;
21424;SDS011;10873;51.132;16.848;2024-03-07T01:58:24;14.63;;;9.57;;
21424;SDS011;10873;51.132;16.848;2024-03-07T02:00:51;13.15;;;9.48;;
21424;SDS011;10873;51.132;16.848;2024-03-07T02:03:18;13.75;;;9.15;;
21424;SDS011;10873;51.132;16.848;2024-03-07T02:05:45;15.95;;;9.73;;
21424;SDS011;10873;51.132;16.848;2024-03-07T02:08:11;13.07;;;9.50;;
21424;SDS011;10873;51.132;16.848;2024-03-07T02:10:37;13.40;;;9.38;;
21424;SDS011;10873;51.132;16.848;2024-03-07T02:13:04;14.90;;;9.93;;
21424;SDS011;10873;51.132;16.848;2024-03-07T02:15:30;13.63;;;9.48;;
21424;SDS011;10873;51.132;16.848;2024-03-07T02:17:58;15.60;;;9.50;;
21424;SDS011;10873;51.132;16.848;2024-03-07T02:20:24;13.80;;;9.73;;
21424;SDS011;10873;51.132;16.848;2024-03-07T02:22:51;13.82;;;9.43;;
21424;SDS011;10873;51.132;16.848;2024-03-07T02:25:17;14.73;;;9.32;;
21424;SDS011;10873;51.132;16.848;2024-03-07T02:27:43;13.25;;;9.27;;
21424;SDS011;10873;51.132;16.848;2024-03-07T02:30:11;12.35;;;9.18;;
21424;SDS011;10873;51.132;16.848;2024-03-07T02:32:37;13.25;;;9.20;;
21424;SDS011;10873;51.132;16.848;2024-03-07T02:35:04;15.27;;;9.82;;
21424;SDS011;10873;51.132;16.848;2024-03-07T02:37:31;13.80;;;9.23;;
21424;SDS011;10873;51.132;16.848;2024-03-07T02:39:58;14.82;;;9.50;;
21424;SDS011;10873;51.132;16.848;2024-03-07T02:42:24;13.07;;;9.50;;
21424;SDS011;10873;51.132;16.848;2024-03-07T02:44:50;13.25;;;9.35;;
21424;SDS011;10873;51.132;16.848;2024-03-07T02:47:18;13.07;;;9.38;;
21424;SDS011;10873;51.132;16.848;2024-03-07T02:49:44;12.65;;;8.90;;
21424;SDS011;10873;51.132;16.848;2024-03-07T02:52:11;13.10;;;9.23;;
21424;SDS011;10873;51.132;16.848;2024-03-07T02:54:38;13.18;;;9.45;;
21424;SDS011;10873;51.132;16.848;2024-03-07T02:57:05;12.07;;;9.07;;
21424;SDS011;10873;51.132;16.848;2024-03-07T02:59:31;14.27;;;9.30;;
21424;SDS011;10873;51.132;16.848;2024-03-07T03:01:57;15.32;;;9.52;;
21424;SDS011;10873;51.132;16.848;2024-03-07T03:04:24;13.70;;;9.32;;
21424;SDS011;10873;51.132;16.848;2024-03-07T03:06:50;14.15;;;9.82;;
21424;SDS011;10873;51.132;16.848;2024-03-07T03:09:16;13.48;;;8.88;;
21424;SDS011;10873;51.132;16.848;2024-03-07T03:11:42;13.68;;;9.18;;
21424;SDS011;10873;51.132;16.848;2024-03-07T03:14:10;13.73;;;9.55;;
21424;SDS011;10873;51.132;16.848;2024-03-07T03:16:37;12.82;;;8.43;;
21424;SDS011;10873;51.132;16.848;2024-03-07T03:19:10;13.50;;;9.32;;
21424;SDS011;10873;51.132;16.848;2024-03-07T03:21:36;12.32;;;8.55;;
21424;SDS011;10873;51.132;16.848;2024-03-07T03:24:04;12.60;;;9.63;;
21424;SDS011;10873;51.132;16.848;2024-03-07T03:26:32;14.13;;;9.45;;
21424;SDS011;10873;51.132;16.848;2024-03-07T03:28:59;13.85;;;9.13;;
21424;SDS011;10873;51.132;16.848;2024-03-07T03:31:26;15.23;;;9.80;;
21424;SDS011;10873;51.132;16.848;2024-03-07T03:33:52;13.57;;;9.40;;
21424;SDS011;10873;51.132;16.848;2024-03-07T03:36:18;13.05;;;8.90;;
21424;SDS011;10873;51.132;16.848;2024-03-07T03:38:45;12.23;;;8.68;;
21424;SDS011;10873;51.132;16.848;2024-03-07T03:41:14;11.32;;;9.02;;
21424;SDS011;10873;51.132;16.848;2024-03-07T03:43:41;13.25;;;9.05;;
21424;SDS011;10873;51.132;16.848;2024-03-07T03:46:14;13.38;;;9.18;;
21424;SDS011;10873;51.132;16.848;2024-03-07T03:48:41;12.45;;;9.05;;
21424;SDS011;10873;51.132;16.848;2024-03-07T03:51:07;13.25;;;9.50;;
21424;SDS011;10873;51.132;16.848;2024-03-07T03:53:34;16.88;;;9.73;;
21424;SDS011;10873;51.132;16.848;2024-03-07T03:56:03;11.45;;;8.77;;
21424;SDS011;10873;51.132;16.848;2024-03-07T03:58:34;10.98;;;8.50;;
21424;SDS011;10873;51.132;16.848;2024-03-07T04:01:01;13.02;;;9.00;;
21424;SDS011;10873;51.132;16.848;2024-03-07T04:03:27;13.88;;;8.93;;
21424;SDS011;10873;51.132;16.848;2024-03-07T04:05:54;12.27;;;8.90;;
21424;SDS011;10873;51.132;16.848;2024-03-07T04:08:21;13.40;;;9.02;;
21424;SDS011;10873;51.132;16.848;2024-03-07T04:10:48;11.95;;;8.27;;
21424;SDS011;10873;51.132;16.848;2024-03-07T04:13:14;12.82;;;9.00;;
21424;SDS011;10873;51.132;16.848;2024-03-07T04:15:40;12.63;;;8.82;;
21424;SDS011;10873;51.132;16.848;2024-03-07T04:18:07;11.65;;;8.48;;
21424;SDS011;10873;51.132;16.848;2024-03-07T04:20:33;13.45;;;8.77;;
21424;SDS011;10873;51.132;16.848;2024-03-07T04:23:00;12.27;;;8.68;;
21424;SDS011;10873;51.132;16.848;2024-03-07T04:25:28;14.80;;;9.50;;
21424;SDS011;10873;51.132;16.848;2024-03-07T04:27:55;11.70;;;8.90;;
21424;SDS011;10873;51.132;16.848;2024-03-07T04:30:21;12.07;;;8.68;;
21424;SDS011;10873;51.132;16.848;2024-03-07T04:32:47;14.60;;;9.20;;
21424;SDS011;10873;51.132;16.848;2024-03-07T04:35:14;12.45;;;8.70;;
21424;SDS011;10873;51.132;16.848;2024-03-07T04:37:41;11.90;;;8.43;;
21424;SDS011;10873;51.132;16.848;2024-03-07T04:40:09;11.77;;;8.40;;
21424;SDS011;10873;51.132;16.848;2024-03-07T04:42:42;11.52;;;8.13;;
21424;SDS011;10873;51.132;16.848;2024-03-07T04:45:09;12.80;;;8.20;;
21424;SDS011;10873;51.132;16.848;2024-03-07T04:47:36;11.02;;;8.43;;
21424;SDS011;10873;51.132;16.848;2024-03-07T04:50:04;12.10;;;7.90;;
21424;SDS011;10873;51.132;16.848;2024-03-07T04:52:31;12.60;;;8.68;;
21424;SDS011;10873;51.132;16.848;2024-03-07T04:54:57;11.63;;;7.93;;
21424;SDS011;10873;51.132;16.848;2024-03-07T04:57:24;12.95;;;8.73;;
21424;SDS011;10873;51.132;16.848;2024-03-07T04:59:50;11.05;;;7.78;;
21424;SDS011;10873;51.132;16.848;2024-03-07T05:02:16;11.57;;;8.73;;
21424;SDS011;10873;51.132;16.848;2024-03-07T05:04:43;12.07;;;8.68;;
21424;SDS011;10873;51.132;16.848;2024-03-07T05:07:10;9.25;;;7.13;;
21424;SDS011;10873;51.132;16.848;2024-03-07T05:09:36;12.10;;;8.48;;
21424;SDS011;10873;51.132;16.848;2024-03-07T05:12:02;12.38;;;8.30;;
21424;SDS011;10873;51.132;16.848;2024-03-07T05:14:30;12.48;;;7.97;;
21424;SDS011;10873;51.132;16.848;2024-03-07T05:16:56;10.93;;;8.23;;
21424;SDS011;10873;51.132;16.848;2024-03-07T05:19:33;12.60;;;7.95;;
21424;SDS011;10873;51.132;16.848;2024-03-07T05:22:00;11.75;;;8.57;;
21424;SDS011;10873;51.132;16.848;2024-03-07T05:24:26;11.18;;;8.50;;
21424;SDS011;10873;51.132;16.848;2024-03-07T05:26:53;11.65;;;7.75;;
21424;SDS011;10873;51.132;16.848;2024-03-07T05:29:19;10.77;;;7.28;;
21424;SDS011;10873;51.132;16.848;2024-03-07T05:31:46;12.00;;;7.75;;
21424;SDS011;10873;51.132;16.848;2024-03-07T05:34:13;10.82;;;7.82;;
21424;SDS011;10873;51.132;16.848;2024-03-07T05:36:40;10.65;;;8.00;;
21424;SDS011;10873;51.132;16.848;2024-03-07T05:39:12;11.07;;;7.65;;
21424;SDS011;10873;51.132;16.848;2024-03-07T05:41:40;12.88;;;8.77;;
21424;SDS011;10873;51.132;16.848;2024-03-07T05:44:07;17.75;;;8.55;;
21424;SDS011;10873;51.132;16.848;2024-03-07T05:46:35;9.93;;;7.97;;
21424;SDS011;10873;51.132;16.848;2024-03-07T05:49:02;17.95;;;8.40;;
21424;SDS011;10873;51.132;16.848;2024-03-07T05:51:29;11.90;;;7.47;;
21424;SDS011;10873;51.132;16.848;2024-03-07T05:53:56;11.95;;;8.02;;
21424;SDS011;10873;51.132;16.848;2024-03-07T05:56:23;11.20;;;7.70;;
21424;SDS011;10873;51.132;16.848;2024-03-07T05:58:49;14.02;;;7.82;;
21424;SDS011;10873;51.132;16.848;2024-03-07T06:01:17;14.68;;;7.90;;
21424;SDS011;10873;51.132;16.848;2024-03-07T06:03:43;10.68;;;7.57;;
21424;SDS011;10873;51.132;16.848;2024-03-07T06:06:16;11.95;;;7.53;;
21424;SDS011;10873;51.132;16.848;2024-03-07T06:08:44;8.75;;;6.80;;
21424;SDS011;10873;51.132;16.848;2024-03-07T06:11:11;8.18;;;6.50;;
21424;SDS011;10873;51.132;16.848;2024-03-07T06:13:38;13.07;;;6.90;;
21424;SDS011;10873;51.132;16.848;2024-03-07T06:16:09;9.15;;;7.13;;
21424;SDS011;10873;51.132;16.848;2024-03-07T06:18:36;13.70;;;7.40;;
21424;SDS011;10873;51.132;16.848;2024-03-07T06:21:03;12.63;;;7.00;;
21424;SDS011;10873;51.132;16.848;2024-03-07T06:23:30;10.07;;;7.13;;
21424;SDS011;10873;51.132;16.848;2024-03-07T06:25:59;8.85;;;6.88;;
21424;SDS011;10873;51.132;16.848;2024-03-07T06:28:26;11.20;;;7.30;;
21424;SDS011;10873;51.132;16.848;2024-03-07T06:30:56;8.90;;;6.43;;
21424;SDS011;10873;51.132;16.848;2024-03-07T06:33:22;9.75;;;7.22;;
21424;SDS011;10873;51.132;16.848;2024-03-07T06:35:49;8.98;;;6.47;;
21424;SDS011;10873;51.132;16.848;2024-03-07T06:38:17;8.90;;;6.38;;
21424;SDS011;10873;51.132;16.848;2024-03-07T06:40:44;8.60;;;6.53;;
21424;SDS011;10873;51.132;16.848;2024-03-07T06:43:10;8.77;;;6.28;;
21424;SDS011;10873;51.132;16.848;2024-03-07T06:45:37;11.15;;;6.82;;
21424;SDS011;10873;51.132;16.848;2024-03-07T06:48:04;8.75;;;6.63;;
21424;SDS011;10873;51.132;16.848;2024-03-07T06:50:32;7.97;;;6.03;;
21424;SDS011;10873;51.132;16.848;2024-03-07T06:52:58;10.82;;;6.45;;
21424;SDS011;10873;51.132;16.848;2024-03-07T06:55:25;8.80;;;6.35;;
21424;SDS011;10873;51.132;16.848;2024-03-07T06:57:53;11.10;;;6.13;;
21424;SDS011;10873;51.132;16.848;2024-03-07T07:00:20;8.75;;;6.05;;
21424;SDS011;10873;51.132;16.848;2024-03-07T07:02:46;7.82;;;5.75;;
21424;SDS011;10873;51.132;16.848;2024-03-07T07:05:13;9.02;;;6.10;;
21424;SDS011;10873;51.132;16.848;2024-03-07T07:07:43;7.85;;;5.90;;
21424;SDS011;10873;51.132;16.848;2024-03-07T07:10:10;7.88;;;5.80;;
21424;SDS011;10873;51.132;16.848;2024-03-07T07:12:41;7.18;;;5.32;;
21424;SDS011;10873;51.132;16.848;2024-03-07T07:15:13;7.97;;;5.88;;
21424;SDS011;10873;51.132;16.848;2024-03-07T07:17:41;8.15;;;5.53;;
21424;SDS011;10873;51.132;16.848;2024-03-07T07:20:12;8.50;;;5.53;;
21424;SDS011;10873;51.132;16.848;2024-03-07T07:22:40;8.15;;;5.47;;
21424;SDS011;10873;51.132;16.848;2024-03-07T07:25:07;6.30;;;5.30;;
21424;SDS011;10873;51.132;16.848;2024-03-07T07:27:40;7.88;;;5.47;;
21424;SDS011;10873;51.132;16.848;2024-03-07T07:30:11;6.05;;;4.95;;
21424;SDS011;10873;51.132;16.848;2024-03-07T07:32:38;7.28;;;5.15;;
21424;SDS011;10873;51.132;16.848;2024-03-07T07:35:06;6.50;;;5.20;;
21424;SDS011;10873;51.132;16.848;2024-03-07T07:37:37;5.82;;;4.45;;
21424;SDS011;10873;51.132;16.848;2024-03-07T07:40:05;5.43;;;4.60;;
21424;SDS011;10873;51.132;16.848;2024-03-07T07:42:34;5.95;;;4.68;;
21424;SDS011;10873;51.132;16.848;2024-03-07T07:45:09;5.95;;;4.80;;
21424;SDS011;10873;51.132;16.848;2024-03-07T07:47:42;6.75;;;5.10;;
21424;SDS011;10873;51.132;16.848;2024-03-07T07:50:11;7.80;;;4.95;;
21424;SDS011;10873;51.132;16.848;2024-03-07T07:52:43;7.95;;;4.93;;
21424;SDS011;10873;51.132;16.848;2024-03-07T07:55:10;8.75;;;5.60;;
21424;SDS011;10873;51.132;16.848;2024-03-07T07:57:41;6.57;;;4.95;;
21424;SDS011;10873;51.132;16.848;2024-03-07T08:00:09;7.45;;;4.85;;
21424;SDS011;10873;51.132;16.848;2024-03-07T08:02:48;7.07;;;4.55;;
21424;SDS011;10873;51.132;16.848;2024-03-07T08:05:15;5.88;;;4.60;;
21424;SDS011;10873;51.132;16.848;2024-03-07T08:07:43;6.03;;;4.53;;
21424;SDS011;10873;51.132;16.848;2024-03-07T08:10:11;6.05;;;4.43;;
21424;SDS011;10873;51.132;16.848;2024-03-07T08:12:37;5.75;;;4.60;;
21424;SDS011;10873;51.132;16.848;2024-03-07T08:15:04;6.25;;;4.72;;
21424;SDS011;10873;51.132;16.848;2024-03-07T08:17:32;6.82;;;4.78;;
21424;SDS011;10873;51.132;16.848;2024-03-07T08:19:58;7.80;;;5.10;;
21424;SDS011;10873;51.132;16.848;2024-03-07T08:22:24;7.22;;;4.72;;
21424;SDS011;10873;51.132;16.848;2024-03-07T08:24:52;5.32;;;4.47;;
21424;SDS011;10873;51.132;16.848;2024-03-07T08:27:18;4.80;;;4.25;;
21424;SDS011;10873;51.132;16.848;2024-03-07T08:29:44;6.47;;;4.80;;
21424;SDS011;10873;51.132;16.848;2024-03-07T08:32:10;6.82;;;4.80;;
21424;SDS011;10873;51.132;16.848;2024-03-07T08:34:37;6.15;;;4.70;;
21424;SDS011;10873;51.132;16.848;2024-03-07T08:37:03;6.35;;;4.10;;
21424;SDS011;10873;51.132;16.848;2024-03-07T08:39:33;8.57;;;4.47;;
21424;SDS011;10873;51.132;16.848;2024-03-07T08:41:59;5.13;;;4.00;;
21424;SDS011;10873;51.132;16.848;2024-03-07T08:44:25;7.30;;;4.20;;
21424;SDS011;10873;51.132;16.848;2024-03-07T08:46:51;5.80;;;4.60;;
21424;SDS011;10873;51.132;16.848;2024-03-07T08:49:20;5.70;;;4.43;;
21424;SDS011;10873;51.132;16.848;2024-03-07T08:51:47;5.03;;;4.07;;
21424;SDS011;10873;51.132;16.848;2024-03-07T08:54:13;9.70;;;4.75;;
21424;SDS011;10873;51.132;16.848;2024-03-07T08:56:39;6.30;;;4.60;;
21424;SDS011;10873;51.132;16.848;2024-03-07T08:59:08;6.45;;;4.47;;
21424;SDS011;10873;51.132;16.848;2024-03-07T09:01:41;5.35;;;4.30;;
21424;SDS011;10873;51.132;16.848;2024-03-07T09:04:09;5.32;;;4.20;;
21424;SDS011;10873;51.132;16.848;2024-03-07T09:06:35;5.28;;;4.30;;
21424;SDS011;10873;51.132;16.848;2024-03-07T09:09:03;6.13;;;4.40;;
21424;SDS011;10873;51.132;16.848;2024-03-07T09:11:29;5.65;;;4.35;;
21424;SDS011;10873;51.132;16.848;2024-03-07T09:13:57;5.78;;;4.45;;
21424;SDS011;10873;51.132;16.848;2024-03-07T09:16:23;5.65;;;4.25;;
21424;SDS011;10873;51.132;16.848;2024-03-07T09:18:50;5.28;;;4.50;;
21424;SDS011;10873;51.132;16.848;2024-03-07T09:21:17;6.38;;;4.20;;
21424;SDS011;10873;51.132;16.848;2024-03-07T09:23:47;5.20;;;4.38;;
21424;SDS011;10873;51.132;16.848;2024-03-07T09:26:14;5.10;;;4.10;;
21424;SDS011;10873;51.132;16.848;2024-03-07T09:28:40;5.32;;;4.00;;
21424;SDS011;10873;51.132;16.848;2024-03-07T09:31:06;5.13;;;4.10;;
21424;SDS011;10873;51.132;16.848;2024-03-07T09:33:33;5.95;;;4.50;;
21424;SDS011;10873;51.132;16.848;2024-03-07T09:35:59;5.78;;;4.20;;
21424;SDS011;10873;51.132;16.848;2024-03-07T09:38:26;4.88;;;4.13;;
21424;SDS011;10873;51.132;16.848;2024-03-07T09:40:53;7.15;;;4.30;;
21424;SDS011;10873;51.132;16.848;2024-03-07T09:43:20;5.72;;;3.90;;
21424;SDS011;10873;51.132;16.848;2024-03-07T09:45:48;5.10;;;4.30;;
21424;SDS011;10873;51.132;16.848;2024-03-07T09:48:15;5.82;;;4.47;;
21424;SDS011;10873;51.132;16.848;2024-03-07T09:50:42;5.45;;;4.00;;
21424;SDS011;10873;51.132;16.848;2024-03-07T09:53:12;7.18;;;4.03;;
21424;SDS011;10873;51.132;16.848;2024-03-07T09:55:42;5.10;;;4.32;;
21424;SDS011;10873;51.132;16.848;2024-03-07T09:58:09;6.25;;;4.20;;
21424;SDS011;10873;51.132;16.848;2024-03-07T10:00:39;7.03;;;4.95;;
21424;SDS011;10873;51.132;16.848;2024-03-07T10:03:06;6.78;;;5.05;;
21424;SDS011;10873;51.132;16.848;2024-03-07T10:05:34;6.63;;;4.35;;
21424;SDS011;10873;51.132;16.848;2024-03-07T10:08:02;5.53;;;4.38;;
21424;SDS011;10873;51.132;16.848;2024-03-07T10:10:28;6.85;;;4.80;;
21424;SDS011;10873;51.132;16.848;2024-03-07T10:12:56;4.88;;;4.32;;
21424;SDS011;10873;51.132;16.848;2024-03-07T10:15:26;6.15;;;4.57;;
21424;SDS011;10873;51.132;16.848;2024-03-07T10:17:55;6.90;;;5.20;;
21424;SDS011;10873;51.132;16.848;2024-03-07T10:20:21;6.03;;;4.90;;
21424;SDS011;10873;51.132;16.848;2024-03-07T10:22:48;6.75;;;4.60;;
21424;SDS011;10873;51.132;16.848;2024-03-07T10:25:16;5.70;;;4.90;;
21424;SDS011;10873;51.132;16.848;2024-03-07T10:27:45;7.43;;;4.75;;
21424;SDS011;10873;51.132;16.848;2024-03-07T10:30:14;5.72;;;4.80;;
21424;SDS011;10873;51.132;16.848;2024-03-07T10:32:46;6.28;;;4.95;;
21424;SDS011;10873;51.132;16.848;2024-03-07T10:35:13;6.47;;;4.90;;
21424;SDS011;10873;51.132;16.848;2024-03-07T10:37:40;6.05;;;4.55;;
21424;SDS011;10873;51.132;16.848;2024-03-07T10:40:06;6.03;;;4.70;;
21424;SDS011;10873;51.132;16.848;2024-03-07T10:42:42;6.78;;;5.10;;
21424;SDS011;10873;51.132;16.848;2024-03-07T10:45:11;6.50;;;5.30;;
21424;SDS011;10873;51.132;16.848;2024-03-07T10:47:42;6.97;;;5.00;;
21424;SDS011;10873;51.132;16.848;2024-03-07T10:50:13;7.55;;;5.65;;
21424;SDS011;10873;51.132;16.848;2024-03-07T10:52:48;6.28;;;5.10;;
21424;SDS011;10873;51.132;16.848;2024-03-07T10:55:31;6.97;;;5.63;;
21424;SDS011;10873;51.132;16.848;2024-03-07T10:58:02;6.80;;;4.80;;
21424;SDS011;10873;51.132;16.848;2024-03-07T11:00:36;8.45;;;5.13;;
21424;SDS011;10873;51.132;16.848;2024-03-07T11:03:11;6.95;;;5.20;;
21424;SDS011;10873;51.132;16.848;2024-03-07T11:05:40;6.75;;;5.43;;
21424;SDS011;10873;51.132;16.848;2024-03-07T11:08:09;8.88;;;5.40;;
21424;SDS011;10873;51.132;16.848;2024-03-07T11:10:39;8.77;;;5.20;;
21424;SDS011;10873;51.132;16.848;2024-03-07T11:13:06;6.80;;;5.30;;
21424;SDS011;10873;51.132;16.848;2024-03-07T11:15:39;7.47;;;5.50;;
21424;SDS011;10873;51.132;16.848;2024-03-07T11:18:09;6.78;;;5.45;;
21424;SDS011;10873;51.132;16.848;2024-03-07T11:20:38;6.47;;;5.30;;
21424;SDS011;10873;51.132;16.848;2024-03-07T11:25:54;6.53;;;4.97;;
21424;SDS011;10873;51.132;16.848;2024-03-07T11:28:33;6.70;;;5.50;;
21424;SDS011;10873;51.132;16.848;2024-03-07T11:31:09;6.20;;;5.25;;
21424;SDS011;10873;51.132;16.848;2024-03-07T11:33:37;6.18;;;5.07;;
21424;SDS011;10873;51.132;16.848;2024-03-07T11:36:07;7.13;;;5.50;;
21424;SDS011;10873;51.132;16.848;2024-03-07T11:38:35;9.43;;;5.45;;
21424;SDS011;10873;51.132;16.848;2024-03-07T11:41:04;7.93;;;5.88;;
21424;SDS011;10873;51.132;16.848;2024-03-07T11:43:34;8.43;;;6.35;;
21424;SDS011;10873;51.132;16.848;2024-03-07T11:46:01;8.05;;;5.80;;
21424;SDS011;10873;51.132;16.848;2024-03-07T11:48:27;8.23;;;5.82;;
21424;SDS011;10873;51.132;16.848;2024-03-07T11:50:53;12.77;;;6.22;;
21424;SDS011;10873;51.132;16.848;2024-03-07T11:53:20;7.82;;;6.13;;
21424;SDS011;10873;51.132;16.848;2024-03-07T11:55:48;8.73;;;6.30;;
21424;SDS011;10873;51.132;16.848;2024-03-07T11:58:14;10.70;;;6.78;;
21424;SDS011;10873;51.132;16.848;2024-03-07T12:00:47;10.23;;;6.10;;
21424;SDS011;10873;51.132;16.848;2024-03-07T12:03:14;9.02;;;6.40;;
21424;SDS011;10873;51.132;16.848;2024-03-07T12:05:49;8.05;;;6.38;;
21424;SDS011;10873;51.132;16.848;2024-03-07T12:08:16;8.93;;;6.25;;
21424;SDS011;10873;51.132;16.848;2024-03-07T12:10:43;9.30;;;6.55;;
21424;SDS011;10873;51.132;16.848;2024-03-07T12:13:11;7.95;;;6.25;;
21424;SDS011;10873;51.132;16.848;2024-03-07T12:15:41;11.10;;;6.93;;
21424;SDS011;10873;51.132;16.848;2024-03-07T12:18:08;10.25;;;6.20;;
21424;SDS011;10873;51.132;16.848;2024-03-07T12:20:36;8.77;;;6.40;;
21424;SDS011;10873;51.132;16.848;2024-03-07T12:23:03;9.10;;;6.18;;
21424;SDS011;10873;51.132;16.848;2024-03-07T12:25:34;8.85;;;6.45;;
21424;SDS011;10873;51.132;16.848;2024-03-07T12:28:03;8.25;;;6.68;;
21424;SDS011;10873;51.132;16.848;2024-03-07T12:30:32;8.00;;;6.20;;
21424;SDS011;10873;51.132;16.848;2024-03-07T12:33:00;7.95;;;5.80;;
21424;SDS011;10873;51.132;16.848;2024-03-07T12:35:29;7.78;;;6.25;;
21424;SDS011;10873;51.132;16.848;2024-03-07T12:37:56;8.32;;;6.28;;
21424;SDS011;10873;51.132;16.848;2024-03-07T12:40:23;7.97;;;5.97;;
21424;SDS011;10873;51.132;16.848;2024-03-07T12:42:50;7.90;;;5.55;;
21424;SDS011;10873;51.132;16.848;2024-03-07T12:45:18;8.32;;;5.82;;
21424;SDS011;10873;51.132;16.848;2024-03-07T12:47:46;9.95;;;6.15;;
21424;SDS011;10873;51.132;16.848;2024-03-07T12:50:16;8.00;;;6.03;;
21424;SDS011;10873;51.132;16.848;2024-03-07T12:52:43;8.55;;;6.07;;
21424;SDS011;10873;51.132;16.848;2024-03-07T12:55:09;8.40;;;5.93;;
21424;SDS011;10873;51.132;16.848;2024-03-07T12:57:38;7.45;;;6.03;;
21424;SDS011;10873;51.132;16.848;2024-03-07T13:00:06;7.50;;;5.95;;
21424;SDS011;10873;51.132;16.848;2024-03-07T13:02:44;7.88;;;5.90;;
21424;SDS011;10873;51.132;16.848;2024-03-07T13:05:12;10.35;;;6.28;;
21424;SDS011;10873;51.132;16.848;2024-03-07T13:07:46;7.20;;;6.00;;
21424;SDS011;10873;51.132;16.848;2024-03-07T13:10:13;10.07;;;5.90;;
21424;SDS011;10873;51.132;16.848;2024-03-07T13:12:44;9.73;;;5.43;;
21424;SDS011;10873;51.132;16.848;2024-03-07T13:15:10;7.85;;;5.78;;
21424;SDS011;10873;51.132;16.848;2024-03-07T13:17:37;7.13;;;5.63;;
21424;SDS011;10873;51.132;16.848;2024-03-07T13:20:04;7.25;;;5.60;;
21424;SDS011;10873;51.132;16.848;2024-03-07T13:22:38;8.40;;;6.18;;
21424;SDS011;10873;51.132;16.848;2024-03-07T13:25:04;6.63;;;5.38;;
21424;SDS011;10873;51.132;16.848;2024-03-07T13:27:40;7.13;;;5.68;;
21424;SDS011;10873;51.132;16.848;2024-03-07T13:30:10;7.80;;;5.78;;
21424;SDS011;10873;51.132;16.848;2024-03-07T13:32:49;9.13;;;6.18;;
21424;SDS011;10873;51.132;16.848;2024-03-07T13:35:18;8.30;;;5.95;;
21424;SDS011;10873;51.132;16.848;2024-03-07T13:37:46;7.43;;;5.97;;
21424;SDS011;10873;51.132;16.848;2024-03-07T13:40:12;8.00;;;5.85;;
21424;SDS011;10873;51.132;16.848;2024-03-07T13:42:52;8.77;;;5.78;;
21424;SDS011;10873;51.132;16.848;2024-03-07T13:45:20;7.43;;;5.97;;
21424;SDS011;10873;51.132;16.848;2024-03-07T13:47:48;7.18;;;6.03;;
21424;SDS011;10873;51.132;16.848;2024-03-07T13:50:15;7.65;;;5.60;;
21424;SDS011;10873;51.132;16.848;2024-03-07T13:52:46;7.93;;;5.75;;
21424;SDS011;10873;51.132;16.848;2024-03-07T13:55:30;8.70;;;6.63;;
21424;SDS011;10873;51.132;16.848;2024-03-07T13:57:59;7.72;;;5.50;;
21424;SDS011;10873;51.132;16.848;2024-03-07T14:00:36;8.95;;;6.00;;
21424;SDS011;10873;51.132;16.848;2024-03-07T14:03:16;9.10;;;6.15;;
21424;SDS011;10873;51.132;16.848;2024-03-07T14:06:04;7.40;;;6.03;;
21424;SDS011;10873;51.132;16.848;2024-03-07T14:08:56;7.80;;;6.43;;
21424;SDS011;10873;51.132;16.848;2024-03-07T14:12:21;8.43;;;6.45;;
21424;SDS011;10873;51.132;16.848;2024-03-07T14:24:36;8.27;;;6.25;;
21424;SDS011;10873;51.132;16.848;2024-03-07T14:27:22;7.57;;;6.05;;
21424;SDS011;10873;51.132;16.848;2024-03-07T14:32:48;7.38;;;6.40;;
21424;SDS011;10873;51.132;16.848;2024-03-07T14:35:18;10.38;;;6.90;;
21424;SDS011;10873;51.132;16.848;2024-03-07T14:37:55;9.68;;;7.10;;
21424;SDS011;10873;51.132;16.848;2024-03-07T14:40:32;11.23;;;7.65;;
21424;SDS011;10873;51.132;16.848;2024-03-07T14:43:01;9.50;;;6.95;;
21424;SDS011;10873;51.132;16.848;2024-03-07T14:45:31;9.68;;;7.60;;
21424;SDS011;10873;51.132;16.848;2024-03-07T14:48:01;11.00;;;7.28;;
21424;SDS011;10873;51.132;16.848;2024-03-07T14:50:29;10.68;;;7.20;;